createdAt,value
2023-05-14T00:00:24.523Z,18.40
2023-05-14T00:02:51.430Z,18.40
2023-05-14T00:05:18.097Z,18.40
2023-05-14T00:07:44.770Z,18.40
2023-05-14T00:10:11.554Z,18.40
2023-05-14T00:12:38.233Z,18.40
2023-05-14T00:15:05.563Z,18.40
2023-05-14T00:17:32.349Z,18.40
2023-05-14T00:19:59.469Z,18.30
2023-05-14T00:22:26.156Z,18.30
2023-05-14T00:24:52.811Z,18.40
2023-05-14T00:27:19.601Z,18.30
2023-05-14T00:29:46.325Z,18.30
2023-05-14T00:32:12.946Z,18.20
2023-05-14T00:34:39.628Z,18.20
2023-05-14T00:37:06.381Z,18.20
2023-05-14T00:39:34.139Z,18.20
2023-05-14T00:42:00.901Z,18.10
2023-05-14T00:44:27.764Z,18.10
2023-05-14T00:46:54.904Z,18.10
2023-05-14T00:49:22.034Z,18.10
2023-05-14T00:51:48.921Z,18.10
2023-05-14T00:54:17.354Z,18.00
2023-05-14T00:56:46.226Z,18.00
2023-05-14T00:59:13.894Z,18.00
2023-05-14T01:01:40.600Z,18.00
2023-05-14T01:04:07.774Z,18.00
2023-05-14T01:06:47.268Z,17.90
2023-05-14T01:09:25.130Z,17.90
2023-05-14T01:12:12.241Z,17.90
2023-05-14T01:14:54.594Z,17.90
2023-05-14T01:17:24.959Z,17.80
2023-05-14T01:19:52.203Z,17.80
2023-05-14T01:22:18.989Z,17.80
2023-05-14T01:24:45.768Z,17.80
2023-05-14T01:27:43.772Z,17.80
2023-05-14T01:30:16.190Z,17.80
2023-05-14T01:32:47.126Z,17.70
2023-05-14T01:35:14.729Z,17.70
2023-05-14T01:37:41.847Z,17.70
2023-05-14T01:40:10.825Z,17.70
2023-05-14T01:42:38.724Z,17.60
2023-05-14T01:45:06.016Z,17.60
2023-05-14T01:47:32.715Z,17.60
2023-05-14T01:49:59.404Z,17.60
2023-05-14T01:52:26.089Z,17.60
2023-05-14T01:54:52.811Z,17.60
2023-05-14T01:57:19.513Z,17.60
2023-05-14T01:59:46.228Z,17.50
2023-05-14T02:02:12.939Z,17.50
2023-05-14T02:04:39.627Z,17.50
2023-05-14T02:07:06.254Z,17.50
2023-05-14T02:09:33.056Z,17.40
2023-05-14T02:11:59.757Z,17.40
2023-05-14T02:14:26.531Z,17.40
2023-05-14T02:16:53.318Z,17.30
2023-05-14T02:19:20.024Z,17.30
2023-05-14T02:21:48.094Z,17.30
2023-05-14T02:24:14.755Z,17.20
2023-05-14T02:26:41.986Z,17.20
2023-05-14T02:29:08.823Z,17.20
2023-05-14T02:31:35.562Z,17.10
2023-05-14T02:34:03.148Z,17.10
2023-05-14T02:36:29.835Z,17.10
2023-05-14T02:38:58.758Z,17.10
2023-05-14T02:41:25.438Z,17.00
2023-05-14T02:43:52.794Z,17.00
2023-05-14T02:46:20.554Z,17.00
2023-05-14T02:48:47.309Z,17.00
2023-05-14T02:51:14.016Z,16.90
2023-05-14T02:53:40.654Z,16.90
2023-05-14T02:56:08.006Z,16.90
2023-05-14T02:58:34.704Z,16.90
2023-05-14T03:01:01.515Z,16.80
2023-05-14T03:03:30.020Z,16.80
2023-05-14T03:05:57.390Z,16.80
2023-05-14T03:08:24.139Z,16.70
2023-05-14T03:10:50.854Z,16.70
2023-05-14T03:13:19.875Z,16.60
2023-05-14T03:15:47.386Z,16.60
2023-05-14T03:18:14.986Z,16.60
2023-05-14T03:20:42.008Z,16.60
2023-05-14T03:23:08.762Z,16.50
2023-05-14T03:25:35.390Z,16.50
2023-05-14T03:28:02.422Z,16.50
2023-05-14T03:30:29.182Z,16.50
2023-05-14T03:32:55.933Z,16.50
2023-05-14T03:35:22.596Z,16.40
2023-05-14T03:37:49.412Z,16.40
2023-05-14T03:40:16.113Z,16.40
2023-05-14T03:42:43.327Z,16.40
2023-05-14T03:45:10.979Z,16.30
2023-05-14T03:47:37.875Z,16.30
2023-05-14T03:50:06.466Z,16.30
2023-05-14T03:52:33.347Z,16.30
2023-05-14T03:55:02.509Z,16.30
2023-05-14T03:57:29.163Z,16.30
2023-05-14T03:59:56.296Z,16.20
2023-05-14T04:02:23.034Z,16.20
2023-05-14T04:04:49.852Z,16.20
2023-05-14T04:07:19.564Z,16.20
2023-05-14T04:09:46.695Z,16.20
2023-05-14T04:12:13.520Z,16.20
2023-05-14T04:14:40.951Z,16.20
2023-05-14T04:17:07.766Z,16.20
2023-05-14T04:19:34.445Z,16.20
2023-05-14T04:22:01.130Z,16.10
2023-05-14T04:24:27.758Z,16.10
2023-05-14T04:26:54.472Z,16.20
2023-05-14T04:29:21.129Z,16.20
2023-05-14T04:31:49.530Z,16.20
2023-05-14T04:34:16.162Z,16.20
2023-05-14T04:36:42.872Z,16.20
2023-05-14T04:39:09.831Z,16.20
2023-05-14T04:41:36.743Z,16.30
2023-05-14T04:44:03.742Z,16.30
2023-05-14T04:46:30.554Z,16.40
2023-05-14T04:48:57.632Z,16.40
2023-05-14T04:51:24.354Z,16.50
2023-05-14T04:53:51.026Z,16.50
2023-05-14T04:56:17.893Z,16.50
2023-05-14T04:58:44.601Z,16.50
2023-05-14T05:01:11.329Z,16.50
2023-05-14T05:03:38.037Z,16.50
2023-05-14T05:06:04.861Z,16.50
2023-05-14T05:08:31.511Z,16.50
2023-05-14T05:10:58.125Z,16.50
2023-05-14T05:13:24.844Z,16.50
2023-05-14T05:15:51.517Z,16.50
2023-05-14T05:18:18.229Z,16.50
2023-05-14T05:20:44.921Z,16.60
2023-05-14T05:23:11.523Z,16.70
2023-05-14T05:25:38.243Z,16.70
2023-05-14T05:28:04.974Z,16.80
2023-05-14T05:30:31.741Z,16.90
2023-05-14T05:32:58.506Z,17.00
2023-05-14T05:35:25.441Z,17.00
2023-05-14T05:37:52.284Z,17.10
2023-05-14T05:40:19.067Z,17.20
2023-05-14T05:42:45.815Z,17.20
2023-05-14T05:45:12.473Z,17.30
2023-05-14T05:47:39.179Z,17.30
2023-05-14T05:50:07.426Z,17.40
2023-05-14T05:52:34.062Z,17.40
2023-05-14T05:55:00.982Z,17.40
2023-05-14T05:57:27.665Z,17.50
2023-05-14T05:59:54.455Z,17.50
2023-05-14T06:02:21.222Z,17.60
2023-05-14T06:04:48.100Z,17.60
2023-05-14T06:07:14.863Z,17.70
2023-05-14T06:09:41.498Z,17.80
2023-05-14T06:12:08.605Z,17.90
2023-05-14T06:14:35.259Z,18.00
2023-05-14T06:17:01.995Z,18.20
2023-05-14T06:19:28.733Z,18.40
2023-05-14T06:21:55.923Z,18.60
2023-05-14T06:24:22.602Z,18.80
2023-05-14T06:26:49.416Z,19.00
2023-05-14T06:29:16.208Z,19.20
2023-05-14T06:31:43.408Z,19.40
2023-05-14T06:34:10.615Z,19.70
2023-05-14T06:36:37.295Z,19.90
2023-05-14T06:39:04.226Z,20.20
2023-05-14T06:41:30.856Z,20.40
2023-05-14T06:43:57.677Z,20.70
2023-05-14T06:46:24.381Z,21.00
2023-05-14T06:48:51.129Z,21.30
2023-05-14T06:51:17.854Z,21.60
2023-05-14T06:53:44.597Z,21.90
2023-05-14T06:56:11.299Z,22.20
2023-05-14T06:58:38.987Z,22.50
2023-05-14T07:01:06.400Z,22.80
2023-05-14T07:03:33.167Z,23.10
2023-05-14T07:05:59.823Z,23.40
2023-05-14T07:08:26.451Z,23.80
2023-05-14T07:10:53.131Z,24.00
2023-05-14T07:13:19.743Z,24.30
2023-05-14T07:15:46.407Z,24.60
2023-05-14T07:18:13.151Z,24.90
2023-05-14T07:20:39.827Z,25.10
2023-05-14T07:23:06.966Z,25.30
2023-05-14T07:25:33.661Z,25.40
2023-05-14T07:28:00.489Z,25.60
2023-05-14T07:30:27.210Z,25.80
2023-05-14T07:32:54.025Z,25.90
2023-05-14T07:35:20.819Z,26.10
2023-05-14T07:37:47.513Z,26.10
2023-05-14T07:40:14.460Z,26.30
2023-05-14T07:42:41.129Z,26.40
2023-05-14T07:45:09.735Z,26.60
2023-05-14T07:47:36.588Z,26.70
2023-05-14T07:50:03.527Z,26.90
2023-05-14T07:52:30.189Z,27.00
2023-05-14T07:54:56.845Z,27.20
2023-05-14T07:57:23.548Z,27.40
2023-05-14T07:59:50.329Z,27.60
2023-05-14T08:02:17.572Z,27.80
2023-05-14T08:04:44.856Z,28.00
2023-05-14T08:07:11.598Z,28.20
2023-05-14T08:09:38.249Z,28.40
2023-05-14T08:12:05.435Z,28.60
2023-05-14T08:14:32.104Z,28.90
2023-05-14T08:16:58.787Z,29.10
2023-05-14T08:19:27.310Z,29.30
2023-05-14T08:21:54.225Z,29.60
2023-05-14T08:24:21.340Z,29.70
2023-05-14T08:26:48.125Z,29.90
2023-05-14T08:29:16.583Z,30.20
2023-05-14T08:31:43.806Z,30.30
2023-05-14T08:34:10.662Z,30.40
2023-05-14T08:36:38.518Z,30.70
2023-05-14T08:39:07.550Z,30.70
2023-05-14T08:41:34.876Z,30.80
2023-05-14T08:44:13.507Z,30.90
2023-05-14T08:46:41.304Z,30.90
2023-05-14T08:49:16.555Z,30.90
2023-05-14T08:51:48.269Z,30.90
2023-05-14T08:54:18.355Z,30.90
2023-05-14T08:56:50.520Z,30.90
2023-05-14T08:59:18.732Z,30.90
2023-05-14T09:01:51.698Z,30.90
2023-05-14T09:04:22.088Z,30.90
2023-05-14T09:06:50.308Z,30.90
2023-05-14T09:09:17.465Z,31.00
2023-05-14T09:11:48.504Z,31.00
2023-05-14T09:14:15.941Z,31.10
2023-05-14T09:16:45.451Z,31.10
2023-05-14T09:19:13.499Z,31.10
2023-05-14T09:21:40.904Z,31.20
2023-05-14T09:24:08.017Z,31.20
2023-05-14T09:26:35.329Z,31.30
2023-05-14T09:29:02.698Z,31.30
2023-05-14T09:31:31.553Z,31.40
2023-05-14T09:33:59.602Z,31.50
2023-05-14T09:36:27.187Z,31.50
2023-05-14T09:38:57.685Z,31.60
2023-05-14T09:41:24.744Z,31.70
2023-05-14T09:43:51.821Z,31.80
2023-05-14T09:46:18.566Z,31.90
2023-05-14T09:48:46.170Z,32.00
2023-05-14T09:51:13.767Z,32.10
2023-05-14T09:53:41.661Z,32.30
2023-05-14T09:56:08.325Z,32.30
2023-05-14T09:58:34.987Z,32.40
2023-05-14T10:01:02.522Z,32.50
2023-05-14T10:03:30.735Z,32.70
2023-05-14T10:06:03.924Z,32.80
2023-05-14T10:08:35.763Z,32.90
2023-05-14T10:11:08.195Z,33.10
2023-05-14T10:13:41.478Z,33.20
2023-05-14T10:16:29.058Z,33.30
2023-05-14T10:19:01.240Z,33.50
2023-05-14T10:21:31.703Z,33.70
2023-05-14T10:23:58.743Z,33.80
2023-05-14T10:26:25.471Z,34.10
2023-05-14T10:28:52.783Z,34.20
2023-05-14T10:31:23.842Z,34.30
2023-05-14T10:33:51.157Z,34.40
2023-05-14T10:36:18.682Z,34.50
2023-05-14T10:38:46.673Z,34.50
2023-05-14T10:41:21.346Z,34.50
2023-05-14T10:43:48.261Z,34.50
2023-05-14T10:46:15.537Z,34.40
2023-05-14T10:48:43.336Z,34.30
2023-05-14T10:51:11.690Z,34.20
2023-05-14T10:53:40.591Z,34.00
2023-05-14T10:56:12.538Z,33.80
2023-05-14T10:58:42.052Z,33.60
2023-05-14T11:01:10.860Z,33.40
2023-05-14T11:03:43.297Z,33.20
2023-05-14T11:06:11.572Z,32.90
2023-05-14T11:08:39.207Z,32.70
2023-05-14T11:11:09.778Z,32.40
2023-05-14T11:13:36.526Z,32.30
2023-05-14T11:16:12.012Z,31.90
2023-05-14T11:18:48.220Z,31.60
2023-05-14T11:21:16.611Z,31.40
2023-05-14T11:23:46.618Z,31.30
2023-05-14T11:26:13.347Z,31.10
2023-05-14T11:28:40.379Z,30.90
2023-05-14T11:31:07.105Z,30.70
2023-05-14T11:33:33.835Z,30.60
2023-05-14T11:36:00.545Z,30.40
2023-05-14T11:38:27.230Z,30.30
2023-05-14T11:40:58.734Z,30.20
2023-05-14T11:43:28.934Z,30.10
2023-05-14T11:45:56.337Z,29.90
2023-05-14T11:48:25.230Z,29.70
2023-05-14T11:50:53.191Z,29.60
2023-05-14T11:53:25.474Z,29.50
2023-05-14T11:55:54.478Z,29.30
2023-05-14T11:58:21.813Z,29.20
2023-05-14T12:00:53.298Z,29.10
2023-05-14T12:03:26.256Z,28.90
2023-05-14T12:05:57.830Z,28.80
2023-05-14T12:08:31.777Z,28.70
2023-05-14T12:11:00.040Z,28.60
2023-05-14T12:13:28.394Z,28.50
2023-05-14T12:15:57.025Z,28.40
2023-05-14T12:18:31.826Z,28.30
2023-05-14T12:21:07.983Z,28.30
2023-05-14T12:23:34.687Z,28.20
2023-05-14T12:26:03.679Z,28.10
2023-05-14T12:28:30.613Z,28.10
2023-05-14T12:30:58.200Z,28.00
2023-05-14T12:33:26.799Z,28.00
2023-05-14T12:35:54.212Z,27.90
2023-05-14T12:38:20.901Z,27.90
2023-05-14T12:40:47.578Z,27.80
2023-05-14T12:43:14.326Z,27.80
2023-05-14T12:45:40.948Z,27.80
2023-05-14T12:48:07.715Z,27.80
2023-05-14T12:50:34.449Z,27.90
2023-05-14T12:53:01.397Z,27.90
2023-05-14T12:55:28.104Z,27.90
2023-05-14T12:57:54.871Z,27.90
2023-05-14T13:00:21.754Z,27.90
2023-05-14T13:02:48.504Z,27.90
2023-05-14T13:05:15.213Z,27.90
2023-05-14T13:07:42.557Z,27.80
2023-05-14T13:10:09.798Z,27.70
2023-05-14T13:12:36.422Z,27.70
2023-05-14T13:15:03.141Z,27.60
2023-05-14T13:17:30.289Z,27.60
2023-05-14T13:19:57.276Z,27.50
2023-05-14T13:22:24.191Z,27.50
2023-05-14T13:24:50.840Z,27.40
2023-05-14T13:27:17.501Z,27.30
2023-05-14T13:29:44.214Z,27.20
2023-05-14T13:32:10.904Z,27.10
2023-05-14T13:34:37.628Z,27.00
2023-05-14T13:37:04.507Z,26.90
2023-05-14T13:39:31.125Z,26.90
2023-05-14T13:41:57.851Z,26.80
2023-05-14T13:44:24.650Z,26.70
2023-05-14T13:46:51.408Z,26.70
2023-05-14T13:49:18.359Z,26.70
2023-05-14T13:51:45.242Z,26.60
2023-05-14T13:54:11.999Z,26.60
2023-05-14T13:56:38.631Z,26.60
2023-05-14T13:59:05.885Z,26.70
2023-05-14T14:01:32.773Z,26.50
2023-05-14T14:03:59.694Z,26.50
2023-05-14T14:06:29.705Z,26.50
2023-05-14T14:08:56.433Z,26.50
2023-05-14T14:11:23.253Z,26.40
2023-05-14T14:13:50.019Z,26.40
2023-05-14T14:16:16.785Z,26.40
2023-05-14T14:18:43.686Z,26.40
2023-05-14T14:21:10.675Z,26.40
2023-05-14T14:23:37.478Z,26.40
2023-05-14T14:26:04.263Z,26.40
2023-05-14T14:28:31.326Z,26.30
2023-05-14T14:30:58.171Z,26.40
2023-05-14T14:33:25.110Z,26.30
2023-05-14T14:35:51.819Z,26.30
2023-05-14T14:38:18.960Z,26.30
2023-05-14T14:40:46.271Z,26.20
2023-05-14T14:43:12.972Z,26.20
2023-05-14T14:45:39.769Z,26.20
2023-05-14T14:48:25.353Z,26.20
2023-05-14T14:50:52.820Z,26.20
2023-05-14T14:53:20.931Z,26.20
2023-05-14T14:55:48.890Z,26.20
2023-05-14T14:58:15.671Z,26.20
2023-05-14T15:00:42.973Z,26.20
2023-05-14T15:03:10.416Z,26.20
2023-05-14T15:05:37.455Z,26.20
2023-05-14T15:08:04.849Z,26.10
2023-05-14T15:10:32.150Z,26.10
2023-05-14T15:12:59.424Z,26.00
2023-05-14T15:15:26.558Z,26.00
2023-05-14T15:17:53.355Z,26.10
2023-05-14T15:20:20.038Z,25.90
2023-05-14T15:22:46.839Z,25.90
2023-05-14T15:25:13.495Z,25.90
2023-05-14T15:27:40.184Z,25.90
2023-05-14T15:30:07.567Z,25.90
2023-05-14T15:32:34.282Z,25.90
2023-05-14T15:35:01.270Z,25.90
2023-05-14T15:37:27.990Z,25.90
2023-05-14T15:39:54.621Z,25.90
2023-05-14T15:42:21.291Z,25.90
2023-05-14T15:44:48.022Z,25.80
2023-05-14T15:47:14.651Z,25.80
2023-05-14T15:49:41.520Z,25.90
2023-05-14T15:52:08.214Z,25.80
2023-05-14T15:54:34.864Z,25.80
2023-05-14T15:57:01.545Z,25.90
2023-05-14T15:59:28.222Z,25.70
2023-05-14T16:01:54.945Z,25.80
2023-05-14T16:04:21.634Z,25.70
2023-05-14T16:06:48.349Z,25.70
2023-05-14T16:09:15.015Z,25.70
2023-05-14T16:11:41.841Z,25.70
2023-05-14T16:14:08.554Z,25.70
2023-05-14T16:16:36.679Z,25.80
2023-05-14T16:19:03.382Z,25.70
2023-05-14T16:21:30.067Z,25.70
2023-05-14T16:23:56.804Z,25.70
2023-05-14T16:26:23.634Z,25.70
2023-05-14T16:28:50.349Z,25.70
2023-05-14T16:31:17.053Z,25.70
2023-05-14T16:33:43.745Z,25.70
2023-05-14T16:36:10.406Z,25.70
2023-05-14T16:38:41.419Z,25.70
2023-05-14T16:41:14.865Z,25.70
2023-05-14T16:43:41.540Z,25.70
2023-05-14T16:46:08.288Z,25.60
2023-05-14T16:48:35.039Z,25.60
2023-05-14T16:51:01.769Z,25.60
2023-05-14T16:53:28.418Z,25.50
2023-05-14T16:55:55.326Z,25.40
2023-05-14T16:58:22.028Z,25.40
2023-05-14T17:00:48.653Z,25.30
2023-05-14T17:03:15.717Z,25.30
2023-05-14T17:05:43.003Z,25.20
2023-05-14T17:08:10.003Z,25.10
2023-05-14T17:10:36.736Z,25.00
2023-05-14T17:13:03.623Z,25.00
2023-05-14T17:15:30.335Z,24.80
2023-05-14T17:17:57.101Z,24.80
2023-05-14T17:20:24.127Z,24.70
2023-05-14T17:22:51.259Z,24.60
2023-05-14T17:25:18.102Z,24.60
2023-05-14T17:27:44.782Z,24.50
2023-05-14T17:30:11.912Z,24.50
2023-05-14T17:32:38.687Z,24.40
2023-05-14T17:35:05.837Z,24.40
2023-05-14T17:37:32.552Z,24.40
2023-05-14T17:39:59.214Z,24.40
2023-05-14T17:42:26.041Z,24.30
2023-05-14T17:44:53.638Z,24.30
2023-05-14T17:47:21.036Z,24.20
2023-05-14T17:49:47.736Z,24.20
2023-05-14T17:52:14.370Z,24.30
2023-05-14T17:54:40.972Z,24.20
2023-05-14T17:57:07.804Z,24.10
2023-05-14T17:59:34.561Z,24.10
2023-05-14T18:02:01.314Z,24.10
2023-05-14T18:04:28.014Z,24.10
2023-05-14T18:06:54.649Z,24.00
2023-05-14T18:09:21.369Z,24.00
2023-05-14T18:11:48.455Z,24.00
2023-05-14T18:14:15.208Z,23.90
2023-05-14T18:16:41.967Z,23.90
2023-05-14T18:19:08.803Z,23.90
2023-05-14T18:21:35.917Z,23.80
2023-05-14T18:24:02.551Z,23.80
2023-05-14T18:26:29.230Z,23.80
2023-05-14T18:28:57.211Z,23.80
2023-05-14T18:31:24.257Z,23.80
2023-05-14T18:33:51.346Z,23.70
2023-05-14T18:36:18.348Z,23.60
2023-05-14T18:38:45.321Z,23.60
2023-05-14T18:41:11.996Z,23.60
2023-05-14T18:43:38.615Z,23.70
2023-05-14T18:46:05.655Z,23.50
2023-05-14T18:48:32.548Z,23.40
2023-05-14T18:50:59.215Z,23.40
2023-05-14T18:53:26.066Z,23.30
2023-05-14T18:55:52.757Z,23.20
2023-05-14T18:58:19.604Z,23.20
2023-05-14T19:00:46.357Z,23.10
2023-05-14T19:03:13.132Z,23.10
2023-05-14T19:05:39.950Z,23.00
2023-05-14T19:08:07.277Z,22.90
2023-05-14T19:10:34.742Z,23.10
2023-05-14T19:13:02.059Z,22.90
2023-05-14T19:15:28.844Z,22.80
2023-05-14T19:17:55.671Z,22.70
2023-05-14T19:20:22.538Z,22.70
2023-05-14T19:22:49.243Z,22.60
2023-05-14T19:25:16.110Z,22.50
2023-05-14T19:27:42.943Z,22.50
2023-05-14T19:30:09.960Z,22.40
2023-05-14T19:32:37.896Z,22.40
2023-05-14T19:35:05.734Z,22.30
2023-05-14T19:37:32.895Z,22.30
2023-05-14T19:39:59.563Z,22.20
2023-05-14T19:42:26.332Z,22.20
2023-05-14T19:44:53.115Z,22.10
2023-05-14T19:47:19.920Z,22.30
2023-05-14T19:49:46.780Z,22.00
2023-05-14T19:52:13.443Z,22.00
2023-05-14T19:54:40.139Z,21.90
2023-05-14T19:57:06.806Z,21.90
2023-05-14T19:59:34.531Z,21.80
2023-05-14T20:02:02.119Z,21.80
2023-05-14T20:04:28.791Z,21.70
2023-05-14T20:06:56.729Z,21.70
2023-05-14T20:09:23.419Z,21.70
2023-05-14T20:11:50.294Z,21.60
2023-05-14T20:14:16.920Z,21.60
2023-05-14T20:16:44.384Z,21.50
2023-05-14T20:19:11.928Z,21.50
2023-05-14T20:21:38.647Z,21.50
2023-05-14T20:24:05.697Z,21.50
2023-05-14T20:26:32.371Z,21.40
2023-05-14T20:28:59.083Z,21.40
2023-05-14T20:31:25.794Z,21.30
2023-05-14T20:33:52.505Z,21.30
2023-05-14T20:36:19.283Z,21.40
2023-05-14T20:38:46.101Z,21.20
2023-05-14T20:41:12.921Z,21.20
2023-05-14T20:43:39.645Z,21.20
2023-05-14T20:46:07.216Z,21.20
2023-05-14T20:48:33.910Z,21.10
2023-05-14T20:51:01.662Z,21.10
2023-05-14T20:53:28.741Z,21.10
2023-05-14T20:55:55.538Z,21.00
2023-05-14T20:58:22.350Z,21.00
2023-05-14T21:00:49.063Z,21.00
2023-05-14T21:03:15.887Z,20.90
2023-05-14T21:05:43.612Z,20.90
2023-05-14T21:08:11.298Z,20.80
2023-05-14T21:10:37.965Z,20.80
2023-05-14T21:13:04.679Z,20.80
2023-05-14T21:15:31.382Z,20.80
2023-05-14T21:17:58.148Z,20.70
2023-05-14T21:20:25.011Z,20.70
2023-05-14T21:22:51.646Z,20.60
2023-05-14T21:25:18.427Z,20.60
2023-05-14T21:27:45.223Z,20.60
2023-05-14T21:30:12.481Z,20.60
2023-05-14T21:32:39.309Z,20.50
2023-05-14T21:35:06.335Z,20.50
2023-05-14T21:37:33.174Z,20.50
2023-05-14T21:39:59.803Z,20.40
2023-05-14T21:42:26.610Z,20.40
2023-05-14T21:44:53.258Z,20.40
2023-05-14T21:47:20.959Z,20.30
2023-05-14T21:49:47.667Z,20.30
2023-05-14T21:52:14.375Z,20.30
2023-05-14T21:54:41.064Z,20.20
2023-05-14T21:57:07.708Z,20.20
2023-05-14T21:59:36.371Z,20.20
2023-05-14T22:02:07.396Z,20.20
2023-05-14T22:04:35.082Z,20.10
2023-05-14T22:07:01.937Z,20.10
2023-05-14T22:09:28.897Z,20.10
2023-05-14T22:11:56.476Z,20.10
2023-05-14T22:14:23.181Z,20.00
2023-05-14T22:16:50.141Z,20.00
2023-05-14T22:19:16.921Z,20.00
2023-05-14T22:21:43.764Z,20.00
2023-05-14T22:24:10.526Z,19.90
2023-05-14T22:26:37.203Z,19.90
2023-05-14T22:29:03.909Z,19.90
2023-05-14T22:31:30.721Z,19.80
2023-05-14T22:33:57.355Z,19.80
2023-05-14T22:36:23.996Z,19.80
2023-05-14T22:38:50.692Z,19.80
2023-05-14T22:41:17.543Z,19.70
2023-05-14T22:43:44.339Z,19.70
2023-05-14T22:46:11.078Z,19.60
2023-05-14T22:48:37.723Z,19.60
2023-05-14T22:51:04.469Z,19.60
2023-05-14T22:53:31.244Z,19.50
2023-05-14T22:55:57.914Z,19.50
2023-05-14T22:58:24.548Z,19.50
2023-05-14T23:00:51.348Z,19.50
2023-05-14T23:03:18.010Z,19.40
2023-05-14T23:05:44.685Z,19.40
2023-05-14T23:08:11.361Z,19.40
2023-05-14T23:10:38.043Z,19.30
2023-05-14T23:13:04.768Z,19.30
2023-05-14T23:15:32.614Z,19.30
2023-05-14T23:17:59.720Z,19.30
2023-05-14T23:20:26.423Z,19.30
2023-05-14T23:22:54.109Z,19.30
2023-05-14T23:25:20.835Z,19.30
2023-05-14T23:27:48.063Z,19.20
2023-05-14T23:30:15.015Z,19.20
2023-05-14T23:32:41.653Z,19.20
2023-05-14T23:35:08.796Z,19.20
2023-05-14T23:37:41.469Z,19.20
2023-05-14T23:40:09.448Z,19.20
2023-05-14T23:42:36.082Z,19.30
2023-05-14T23:45:02.791Z,19.20
2023-05-14T23:47:29.647Z,19.20
2023-05-14T23:49:56.388Z,19.20
2023-05-14T23:52:23.058Z,19.20
2023-05-14T23:54:49.650Z,19.20
2023-05-14T23:57:16.437Z,19.20
2023-05-14T23:59:43.099Z,19.20
